sensor_id;sensor_type;location;lat;lon;timestamp;P1;durP1;ratioP1;P2;durP2;ratioP2
25237;SDS011;13185;50.872;5.306;2023-01-26T00:00:52;58.03;;;29.40;;
25237;SDS011;13185;50.872;5.306;2023-01-26T00:03:18;62.17;;;29.07;;
25237;SDS011;13185;50.872;5.306;2023-01-26T00:05:44;67.50;;;30.90;;
25237;SDS011;13185;50.872;5.306;2023-01-26T00:08:10;69.30;;;31.80;;
25237;SDS011;13185;50.872;5.306;2023-01-26T00:10:36;67.83;;;31.37;;
25237;SDS011;13185;50.872;5.306;2023-01-26T00:13:03;66.17;;;31.07;;
25237;SDS011;13185;50.872;5.306;2023-01-26T00:15:33;68.57;;;32.47;;
25237;SDS011;13185;50.872;5.306;2023-01-26T00:18:00;67.60;;;31.27;;
25237;SDS011;13185;50.872;5.306;2023-01-26T00:20:27;67.37;;;31.97;;
25237;SDS011;13185;50.872;5.306;2023-01-26T00:22:53;65.83;;;30.57;;
25237;SDS011;13185;50.872;5.306;2023-01-26T00:25:18;64.53;;;31.50;;
25237;SDS011;13185;50.872;5.306;2023-01-26T00:27:44;65.40;;;29.83;;
25237;SDS011;13185;50.872;5.306;2023-01-26T00:30:09;65.70;;;30.63;;
25237;SDS011;13185;50.872;5.306;2023-01-26T00:32:35;65.93;;;30.90;;
25237;SDS011;13185;50.872;5.306;2023-01-26T00:35:01;71.97;;;33.00;;
25237;SDS011;13185;50.872;5.306;2023-01-26T00:37:27;67.57;;;31.93;;
25237;SDS011;13185;50.872;5.306;2023-01-26T00:39:52;75.57;;;32.93;;
25237;SDS011;13185;50.872;5.306;2023-01-26T00:42:18;66.67;;;31.83;;
25237;SDS011;13185;50.872;5.306;2023-01-26T00:44:44;69.77;;;30.63;;
25237;SDS011;13185;50.872;5.306;2023-01-26T00:47:12;68.67;;;31.13;;
25237;SDS011;13185;50.872;5.306;2023-01-26T00:49:38;68.80;;;30.97;;
25237;SDS011;13185;50.872;5.306;2023-01-26T00:52:04;73.13;;;31.00;;
25237;SDS011;13185;50.872;5.306;2023-01-26T00:54:30;79.17;;;31.90;;
25237;SDS011;13185;50.872;5.306;2023-01-26T00:56:55;65.90;;;31.73;;
25237;SDS011;13185;50.872;5.306;2023-01-26T00:59:21;69.17;;;31.80;;
25237;SDS011;13185;50.872;5.306;2023-01-26T01:01:47;76.47;;;31.63;;
25237;SDS011;13185;50.872;5.306;2023-01-26T01:04:13;69.90;;;30.90;;
25237;SDS011;13185;50.872;5.306;2023-01-26T01:06:40;73.43;;;32.73;;
25237;SDS011;13185;50.872;5.306;2023-01-26T01:09:06;72.73;;;32.67;;
25237;SDS011;13185;50.872;5.306;2023-01-26T01:11:31;66.60;;;29.87;;
25237;SDS011;13185;50.872;5.306;2023-01-26T01:13:57;74.57;;;30.70;;
25237;SDS011;13185;50.872;5.306;2023-01-26T01:16:23;73.57;;;31.43;;
25237;SDS011;13185;50.872;5.306;2023-01-26T01:18:52;70.33;;;31.13;;
25237;SDS011;13185;50.872;5.306;2023-01-26T01:21:21;70.30;;;32.13;;
25237;SDS011;13185;50.872;5.306;2023-01-26T01:23:50;70.07;;;29.90;;
25237;SDS011;13185;50.872;5.306;2023-01-26T01:26:24;69.17;;;29.87;;
25237;SDS011;13185;50.872;5.306;2023-01-26T01:28:51;70.57;;;30.13;;
25237;SDS011;13185;50.872;5.306;2023-01-26T01:31:18;75.30;;;31.47;;
25237;SDS011;13185;50.872;5.306;2023-01-26T01:33:43;72.07;;;29.67;;
25237;SDS011;13185;50.872;5.306;2023-01-26T01:36:13;70.13;;;31.00;;
25237;SDS011;13185;50.872;5.306;2023-01-26T01:38:41;74.07;;;30.57;;
25237;SDS011;13185;50.872;5.306;2023-01-26T01:41:08;72.47;;;29.03;;
25237;SDS011;13185;50.872;5.306;2023-01-26T01:43:34;73.37;;;30.23;;
25237;SDS011;13185;50.872;5.306;2023-01-26T01:46:00;77.23;;;31.20;;
25237;SDS011;13185;50.872;5.306;2023-01-26T01:48:34;75.97;;;30.47;;
25237;SDS011;13185;50.872;5.306;2023-01-26T01:51:04;74.10;;;32.40;;
25237;SDS011;13185;50.872;5.306;2023-01-26T01:53:37;72.18;;;29.27;;
25237;SDS011;13185;50.872;5.306;2023-01-26T01:56:08;79.60;;;31.30;;
25237;SDS011;13185;50.872;5.306;2023-01-26T01:58:38;72.50;;;29.83;;
25237;SDS011;13185;50.872;5.306;2023-01-26T02:01:05;77.40;;;29.87;;
25237;SDS011;13185;50.872;5.306;2023-01-26T02:03:34;75.20;;;31.67;;
25237;SDS011;13185;50.872;5.306;2023-01-26T02:06:01;74.40;;;29.63;;
25237;SDS011;13185;50.872;5.306;2023-01-26T02:08:36;73.23;;;28.27;;
25237;SDS011;13185;50.872;5.306;2023-01-26T02:11:09;71.53;;;28.58;;
25237;SDS011;13185;50.872;5.306;2023-01-26T02:13:38;75.93;;;30.58;;
25237;SDS011;13185;50.872;5.306;2023-01-26T02:16:07;70.97;;;28.23;;
25237;SDS011;13185;50.872;5.306;2023-01-26T02:18:33;70.30;;;27.30;;
25237;SDS011;13185;50.872;5.306;2023-01-26T02:20:59;69.20;;;26.30;;
25237;SDS011;13185;50.872;5.306;2023-01-26T02:26:07;65.85;;;25.63;;
25237;SDS011;13185;50.872;5.306;2023-01-26T02:28:36;63.97;;;26.37;;
25237;SDS011;13185;50.872;5.306;2023-01-26T02:31:03;64.93;;;26.47;;
25237;SDS011;13185;50.872;5.306;2023-01-26T02:33:30;61.30;;;25.53;;
25237;SDS011;13185;50.872;5.306;2023-01-26T02:35:59;60.33;;;25.17;;
25237;SDS011;13185;50.872;5.306;2023-01-26T02:38:32;63.23;;;24.90;;
25237;SDS011;13185;50.872;5.306;2023-01-26T02:41:10;60.43;;;24.53;;
25237;SDS011;13185;50.872;5.306;2023-01-26T02:43:58;60.93;;;23.83;;
25237;SDS011;13185;50.872;5.306;2023-01-26T02:46:24;60.80;;;24.20;;
25237;SDS011;13185;50.872;5.306;2023-01-26T02:48:50;63.33;;;24.47;;
25237;SDS011;13185;50.872;5.306;2023-01-26T02:54:00;59.13;;;22.70;;
25237;SDS011;13185;50.872;5.306;2023-01-26T02:56:25;64.20;;;25.97;;
25237;SDS011;13185;50.872;5.306;2023-01-26T02:58:52;62.97;;;25.53;;
25237;SDS011;13185;50.872;5.306;2023-01-26T03:01:18;63.40;;;24.50;;
25237;SDS011;13185;50.872;5.306;2023-01-26T03:03:46;58.70;;;24.07;;
25237;SDS011;13185;50.872;5.306;2023-01-26T03:06:13;60.63;;;22.97;;
25237;SDS011;13185;50.872;5.306;2023-01-26T03:08:39;61.00;;;24.13;;
25237;SDS011;13185;50.872;5.306;2023-01-26T03:11:05;63.63;;;25.53;;
25237;SDS011;13185;50.872;5.306;2023-01-26T03:13:32;67.10;;;26.30;;
25237;SDS011;13185;50.872;5.306;2023-01-26T03:15:58;63.83;;;25.87;;
25237;SDS011;13185;50.872;5.306;2023-01-26T03:18:31;62.60;;;23.70;;
25237;SDS011;13185;50.872;5.306;2023-01-26T03:21:20;65.70;;;26.37;;
25237;SDS011;13185;50.872;5.306;2023-01-26T03:24:05;61.50;;;24.37;;
25237;SDS011;13185;50.872;5.306;2023-01-26T03:26:53;57.10;;;23.77;;
25237;SDS011;13185;50.872;5.306;2023-01-26T03:29:38;63.00;;;24.67;;
25237;SDS011;13185;50.872;5.306;2023-01-26T03:32:03;59.23;;;24.40;;
25237;SDS011;13185;50.872;5.306;2023-01-26T03:34:29;62.90;;;24.20;;
25237;SDS011;13185;50.872;5.306;2023-01-26T03:36:58;60.83;;;24.50;;
25237;SDS011;13185;50.872;5.306;2023-01-26T03:39:28;63.83;;;25.60;;
25237;SDS011;13185;50.872;5.306;2023-01-26T03:42:13;64.73;;;24.57;;
25237;SDS011;13185;50.872;5.306;2023-01-26T03:44:57;59.53;;;23.57;;
25237;SDS011;13185;50.872;5.306;2023-01-26T03:47:42;64.53;;;24.67;;
25237;SDS011;13185;50.872;5.306;2023-01-26T03:50:27;61.27;;;23.90;;
25237;SDS011;13185;50.872;5.306;2023-01-26T03:53:21;64.13;;;25.67;;
25237;SDS011;13185;50.872;5.306;2023-01-26T03:56:09;64.07;;;25.03;;
25237;SDS011;13185;50.872;5.306;2023-01-26T03:58:55;67.00;;;24.93;;
25237;SDS011;13185;50.872;5.306;2023-01-26T04:01:25;61.63;;;24.17;;
25237;SDS011;13185;50.872;5.306;2023-01-26T04:03:54;65.27;;;25.97;;
25237;SDS011;13185;50.872;5.306;2023-01-26T04:06:43;66.27;;;24.13;;
25237;SDS011;13185;50.872;5.306;2023-01-26T04:09:28;59.97;;;24.47;;
25237;SDS011;13185;50.872;5.306;2023-01-26T04:11:56;66.50;;;24.43;;
25237;SDS011;13185;50.872;5.306;2023-01-26T04:14:22;69.00;;;24.07;;
25237;SDS011;13185;50.872;5.306;2023-01-26T04:17:07;59.30;;;23.23;;
25237;SDS011;13185;50.872;5.306;2023-01-26T04:19:51;62.37;;;23.70;;
25237;SDS011;13185;50.872;5.306;2023-01-26T04:22:40;68.77;;;24.43;;
25237;SDS011;13185;50.872;5.306;2023-01-26T04:25:13;64.37;;;25.03;;
25237;SDS011;13185;50.872;5.306;2023-01-26T04:27:41;64.87;;;24.73;;
25237;SDS011;13185;50.872;5.306;2023-01-26T04:30:08;61.03;;;24.70;;
25237;SDS011;13185;50.872;5.306;2023-01-26T04:32:36;67.00;;;24.87;;
25237;SDS011;13185;50.872;5.306;2023-01-26T04:35:03;65.43;;;24.83;;
25237;SDS011;13185;50.872;5.306;2023-01-26T04:37:30;67.63;;;25.03;;
25237;SDS011;13185;50.872;5.306;2023-01-26T04:39:56;66.60;;;26.23;;
25237;SDS011;13185;50.872;5.306;2023-01-26T04:42:22;75.67;;;27.37;;
25237;SDS011;13185;50.872;5.306;2023-01-26T04:44:52;71.43;;;27.73;;
25237;SDS011;13185;50.872;5.306;2023-01-26T04:47:19;69.00;;;28.53;;
25237;SDS011;13185;50.872;5.306;2023-01-26T04:49:45;65.27;;;27.33;;
25237;SDS011;13185;50.872;5.306;2023-01-26T04:52:13;75.80;;;27.23;;
25237;SDS011;13185;50.872;5.306;2023-01-26T04:54:39;65.63;;;26.17;;
25237;SDS011;13185;50.872;5.306;2023-01-26T04:57:05;75.77;;;28.63;;
25237;SDS011;13185;50.872;5.306;2023-01-26T04:59:32;63.27;;;23.97;;
25237;SDS011;13185;50.872;5.306;2023-01-26T05:01:59;66.30;;;25.70;;
25237;SDS011;13185;50.872;5.306;2023-01-26T05:04:25;75.27;;;26.47;;
25237;SDS011;13185;50.872;5.306;2023-01-26T05:06:52;74.30;;;27.07;;
25237;SDS011;13185;50.872;5.306;2023-01-26T05:09:18;66.63;;;25.77;;
25237;SDS011;13185;50.872;5.306;2023-01-26T05:11:48;71.53;;;27.60;;
25237;SDS011;13185;50.872;5.306;2023-01-26T05:14:13;68.43;;;27.27;;
25237;SDS011;13185;50.872;5.306;2023-01-26T05:16:56;69.37;;;24.47;;
25237;SDS011;13185;50.872;5.306;2023-01-26T05:19:41;75.97;;;26.67;;
25237;SDS011;13185;50.872;5.306;2023-01-26T05:22:33;67.53;;;26.83;;
25237;SDS011;13185;50.872;5.306;2023-01-26T05:25:24;68.77;;;25.07;;
25237;SDS011;13185;50.872;5.306;2023-01-26T05:27:56;66.87;;;26.80;;
25237;SDS011;13185;50.872;5.306;2023-01-26T05:30:23;63.30;;;23.77;;
25237;SDS011;13185;50.872;5.306;2023-01-26T05:32:49;65.60;;;25.03;;
25237;SDS011;13185;50.872;5.306;2023-01-26T05:35:14;59.87;;;24.17;;
25237;SDS011;13185;50.872;5.306;2023-01-26T05:37:40;62.33;;;23.40;;
25237;SDS011;13185;50.872;5.306;2023-01-26T05:40:07;62.07;;;25.13;;
25237;SDS011;13185;50.872;5.306;2023-01-26T05:42:34;66.70;;;24.37;;
25237;SDS011;13185;50.872;5.306;2023-01-26T05:45:26;60.40;;;22.63;;
25237;SDS011;13185;50.872;5.306;2023-01-26T05:47:54;65.57;;;24.60;;
25237;SDS011;13185;50.872;5.306;2023-01-26T05:50:20;63.27;;;23.57;;
25237;SDS011;13185;50.872;5.306;2023-01-26T05:53:05;60.80;;;24.03;;
25237;SDS011;13185;50.872;5.306;2023-01-26T05:55:32;62.67;;;23.63;;
25237;SDS011;13185;50.872;5.306;2023-01-26T05:58:00;64.43;;;23.53;;
25237;SDS011;13185;50.872;5.306;2023-01-26T06:00:26;62.97;;;23.80;;
25237;SDS011;13185;50.872;5.306;2023-01-26T06:02:59;64.43;;;24.38;;
25237;SDS011;13185;50.872;5.306;2023-01-26T06:05:25;62.93;;;23.20;;
25237;SDS011;13185;50.872;5.306;2023-01-26T06:07:51;57.80;;;22.50;;
25237;SDS011;13185;50.872;5.306;2023-01-26T06:10:21;59.50;;;23.20;;
25237;SDS011;13185;50.872;5.306;2023-01-26T06:13:05;59.47;;;23.05;;
25237;SDS011;13185;50.872;5.306;2023-01-26T06:15:40;52.53;;;21.10;;
25237;SDS011;13185;50.872;5.306;2023-01-26T06:18:07;52.37;;;21.60;;
25237;SDS011;13185;50.872;5.306;2023-01-26T06:20:33;49.47;;;20.57;;
25237;SDS011;13185;50.872;5.306;2023-01-26T06:23:00;53.47;;;21.40;;
25237;SDS011;13185;50.872;5.306;2023-01-26T06:25:27;49.27;;;20.67;;
25237;SDS011;13185;50.872;5.306;2023-01-26T06:27:55;50.77;;;20.47;;
25237;SDS011;13185;50.872;5.306;2023-01-26T06:30:24;51.80;;;21.03;;
25237;SDS011;13185;50.872;5.306;2023-01-26T06:32:52;50.63;;;20.50;;
25237;SDS011;13185;50.872;5.306;2023-01-26T06:35:20;51.23;;;20.70;;
25237;SDS011;13185;50.872;5.306;2023-01-26T06:37:47;55.00;;;22.03;;
25237;SDS011;13185;50.872;5.306;2023-01-26T06:40:14;52.70;;;20.60;;
25237;SDS011;13185;50.872;5.306;2023-01-26T06:42:45;51.70;;;19.37;;
25237;SDS011;13185;50.872;5.306;2023-01-26T06:45:11;49.20;;;20.37;;
25237;SDS011;13185;50.872;5.306;2023-01-26T06:47:37;49.63;;;19.53;;
25237;SDS011;13185;50.872;5.306;2023-01-26T06:50:08;48.83;;;19.50;;
25237;SDS011;13185;50.872;5.306;2023-01-26T06:52:34;47.27;;;20.53;;
25237;SDS011;13185;50.872;5.306;2023-01-26T06:55:19;52.47;;;20.60;;
25237;SDS011;13185;50.872;5.306;2023-01-26T06:57:58;53.17;;;19.13;;
25237;SDS011;13185;50.872;5.306;2023-01-26T07:00:50;56.60;;;21.57;;
25237;SDS011;13185;50.872;5.306;2023-01-26T07:03:31;50.77;;;21.20;;
25237;SDS011;13185;50.872;5.306;2023-01-26T07:05:57;48.97;;;20.53;;
25237;SDS011;13185;50.872;5.306;2023-01-26T07:08:22;54.67;;;20.40;;
25237;SDS011;13185;50.872;5.306;2023-01-26T07:10:48;55.03;;;21.60;;
25237;SDS011;13185;50.872;5.306;2023-01-26T07:13:14;55.43;;;21.90;;
25237;SDS011;13185;50.872;5.306;2023-01-26T07:15:42;50.70;;;21.23;;
25237;SDS011;13185;50.872;5.306;2023-01-26T07:18:07;50.53;;;20.57;;
25237;SDS011;13185;50.872;5.306;2023-01-26T07:20:35;53.47;;;20.10;;
25237;SDS011;13185;50.872;5.306;2023-01-26T07:23:01;51.60;;;21.20;;
25237;SDS011;13185;50.872;5.306;2023-01-26T07:25:26;51.37;;;20.93;;
25237;SDS011;13185;50.872;5.306;2023-01-26T07:27:55;48.67;;;20.37;;
25237;SDS011;13185;50.872;5.306;2023-01-26T07:30:21;44.53;;;17.73;;
25237;SDS011;13185;50.872;5.306;2023-01-26T07:32:49;50.37;;;19.90;;
25237;SDS011;13185;50.872;5.306;2023-01-26T07:35:15;53.30;;;21.37;;
25237;SDS011;13185;50.872;5.306;2023-01-26T07:37:41;50.50;;;20.87;;
25237;SDS011;13185;50.872;5.306;2023-01-26T07:40:06;49.63;;;20.57;;
25237;SDS011;13185;50.872;5.306;2023-01-26T07:42:32;47.40;;;19.23;;
25237;SDS011;13185;50.872;5.306;2023-01-26T07:45:27;51.00;;;21.27;;
25237;SDS011;13185;50.872;5.306;2023-01-26T07:47:53;47.03;;;19.47;;
25237;SDS011;13185;50.872;5.306;2023-01-26T07:50:21;48.90;;;21.13;;
25237;SDS011;13185;50.872;5.306;2023-01-26T07:52:49;50.90;;;20.33;;
25237;SDS011;13185;50.872;5.306;2023-01-26T07:55:17;54.43;;;20.80;;
25237;SDS011;13185;50.872;5.306;2023-01-26T07:57:48;55.73;;;21.43;;
25237;SDS011;13185;50.872;5.306;2023-01-26T08:00:14;50.23;;;19.97;;
25237;SDS011;13185;50.872;5.306;2023-01-26T08:02:41;51.77;;;20.13;;
25237;SDS011;13185;50.872;5.306;2023-01-26T08:05:07;55.57;;;22.20;;
25237;SDS011;13185;50.872;5.306;2023-01-26T08:07:33;52.57;;;20.83;;
25237;SDS011;13185;50.872;5.306;2023-01-26T08:09:58;53.47;;;21.43;;
25237;SDS011;13185;50.872;5.306;2023-01-26T08:12:24;47.43;;;19.67;;
25237;SDS011;13185;50.872;5.306;2023-01-26T08:14:50;49.10;;;20.07;;
25237;SDS011;13185;50.872;5.306;2023-01-26T08:17:16;50.13;;;20.00;;
25237;SDS011;13185;50.872;5.306;2023-01-26T08:19:43;56.03;;;20.50;;
25237;SDS011;13185;50.872;5.306;2023-01-26T08:22:09;50.10;;;20.97;;
25237;SDS011;13185;50.872;5.306;2023-01-26T08:24:35;48.17;;;21.13;;
25237;SDS011;13185;50.872;5.306;2023-01-26T08:27:00;47.07;;;20.13;;
25237;SDS011;13185;50.872;5.306;2023-01-26T08:29:26;51.13;;;19.50;;
25237;SDS011;13185;50.872;5.306;2023-01-26T08:31:51;48.57;;;19.10;;
25237;SDS011;13185;50.872;5.306;2023-01-26T08:34:17;46.90;;;19.77;;
25237;SDS011;13185;50.872;5.306;2023-01-26T08:36:43;53.27;;;20.70;;
25237;SDS011;13185;50.872;5.306;2023-01-26T08:39:09;54.47;;;21.03;;
25237;SDS011;13185;50.872;5.306;2023-01-26T08:41:34;51.70;;;21.07;;
25237;SDS011;13185;50.872;5.306;2023-01-26T08:44:00;51.13;;;20.93;;
25237;SDS011;13185;50.872;5.306;2023-01-26T08:46:25;49.57;;;20.03;;
25237;SDS011;13185;50.872;5.306;2023-01-26T08:48:51;46.80;;;20.13;;
25237;SDS011;13185;50.872;5.306;2023-01-26T08:51:16;47.50;;;18.93;;
25237;SDS011;13185;50.872;5.306;2023-01-26T08:53:42;46.60;;;19.37;;
25237;SDS011;13185;50.872;5.306;2023-01-26T08:56:09;50.07;;;21.30;;
25237;SDS011;13185;50.872;5.306;2023-01-26T08:58:36;47.10;;;19.80;;
25237;SDS011;13185;50.872;5.306;2023-01-26T09:01:12;47.43;;;18.93;;
25237;SDS011;13185;50.872;5.306;2023-01-26T09:03:42;42.50;;;17.60;;
25237;SDS011;13185;50.872;5.306;2023-01-26T09:06:09;44.80;;;18.60;;
25237;SDS011;13185;50.872;5.306;2023-01-26T09:08:35;44.23;;;18.57;;
25237;SDS011;13185;50.872;5.306;2023-01-26T09:11:03;42.43;;;18.43;;
25237;SDS011;13185;50.872;5.306;2023-01-26T09:13:30;46.03;;;20.07;;
25237;SDS011;13185;50.872;5.306;2023-01-26T09:15:55;43.40;;;18.50;;
25237;SDS011;13185;50.872;5.306;2023-01-26T09:18:24;48.77;;;20.33;;
25237;SDS011;13185;50.872;5.306;2023-01-26T09:20:49;42.60;;;18.60;;
25237;SDS011;13185;50.872;5.306;2023-01-26T09:23:17;41.63;;;18.47;;
25237;SDS011;13185;50.872;5.306;2023-01-26T09:25:43;45.87;;;18.67;;
25237;SDS011;13185;50.872;5.306;2023-01-26T09:28:08;44.27;;;19.80;;
25237;SDS011;13185;50.872;5.306;2023-01-26T09:30:34;46.53;;;18.50;;
25237;SDS011;13185;50.872;5.306;2023-01-26T09:33:02;44.90;;;18.73;;
25237;SDS011;13185;50.872;5.306;2023-01-26T09:35:29;44.13;;;18.57;;
25237;SDS011;13185;50.872;5.306;2023-01-26T09:37:57;44.47;;;18.83;;
25237;SDS011;13185;50.872;5.306;2023-01-26T09:43:05;44.33;;;18.53;;
25237;SDS011;13185;50.872;5.306;2023-01-26T09:45:47;44.47;;;17.83;;
25237;SDS011;13185;50.872;5.306;2023-01-26T09:48:36;40.23;;;17.93;;
25237;SDS011;13185;50.872;5.306;2023-01-26T09:51:33;39.93;;;18.60;;
25237;SDS011;13185;50.872;5.306;2023-01-26T09:56:33;38.07;;;17.73;;
25237;SDS011;13185;50.872;5.306;2023-01-26T09:59:15;41.00;;;18.20;;
25237;SDS011;13185;50.872;5.306;2023-01-26T10:04:47;39.50;;;16.20;;
25237;SDS011;13185;50.872;5.306;2023-01-26T10:07:18;39.70;;;16.77;;
25237;SDS011;13185;50.872;5.306;2023-01-26T10:09:45;38.20;;;17.03;;
25237;SDS011;13185;50.872;5.306;2023-01-26T10:12:17;37.50;;;16.33;;
25237;SDS011;13185;50.872;5.306;2023-01-26T10:14:51;40.83;;;17.53;;
25237;SDS011;13185;50.872;5.306;2023-01-26T10:17:30;39.83;;;17.97;;
25237;SDS011;13185;50.872;5.306;2023-01-26T10:20:05;41.77;;;17.10;;
25237;SDS011;13185;50.872;5.306;2023-01-26T10:25:36;34.23;;;16.40;;
25237;SDS011;13185;50.872;5.306;2023-01-26T10:28:23;35.10;;;15.60;;
25237;SDS011;13185;50.872;5.306;2023-01-26T10:30:52;35.90;;;15.70;;
25237;SDS011;13185;50.872;5.306;2023-01-26T10:33:19;32.93;;;15.93;;
25237;SDS011;13185;50.872;5.306;2023-01-26T10:35:47;36.67;;;15.93;;
25237;SDS011;13185;50.872;5.306;2023-01-26T10:43:53;35.03;;;15.00;;
25237;SDS011;13185;50.872;5.306;2023-01-26T10:46:24;34.90;;;16.33;;
25237;SDS011;13185;50.872;5.306;2023-01-26T10:51:36;33.47;;;14.80;;
25237;SDS011;13185;50.872;5.306;2023-01-26T10:56:50;30.83;;;14.77;;
25237;SDS011;13185;50.872;5.306;2023-01-26T11:01:54;26.60;;;12.73;;
25237;SDS011;13185;50.872;5.306;2023-01-26T11:04:21;27.70;;;13.23;;
25237;SDS011;13185;50.872;5.306;2023-01-26T11:06:47;25.53;;;13.03;;
25237;SDS011;13185;50.872;5.306;2023-01-26T11:11:38;25.87;;;12.57;;
25237;SDS011;13185;50.872;5.306;2023-01-26T11:14:17;24.57;;;12.33;;
25237;SDS011;13185;50.872;5.306;2023-01-26T11:16:52;26.23;;;12.67;;
25237;SDS011;13185;50.872;5.306;2023-01-26T11:22:16;23.03;;;12.30;;
25237;SDS011;13185;50.872;5.306;2023-01-26T11:27:37;22.30;;;11.40;;
25237;SDS011;13185;50.872;5.306;2023-01-26T11:33:11;23.83;;;11.63;;
25237;SDS011;13185;50.872;5.306;2023-01-26T11:36:02;20.23;;;10.40;;
25237;SDS011;13185;50.872;5.306;2023-01-26T11:44:53;24.60;;;11.73;;
25237;SDS011;13185;50.872;5.306;2023-01-26T11:47:34;23.30;;;11.53;;
25237;SDS011;13185;50.872;5.306;2023-01-26T11:53:10;22.10;;;12.10;;
25237;SDS011;13185;50.872;5.306;2023-01-26T11:58:33;19.33;;;9.83;;
25237;SDS011;13185;50.872;5.306;2023-01-26T12:01:06;19.50;;;9.60;;
25237;SDS011;13185;50.872;5.306;2023-01-26T12:06:10;17.93;;;9.87;;
25237;SDS011;13185;50.872;5.306;2023-01-26T12:08:42;22.23;;;11.07;;
25237;SDS011;13185;50.872;5.306;2023-01-26T12:11:18;16.50;;;9.60;;
25237;SDS011;13185;50.872;5.306;2023-01-26T12:13:51;18.23;;;9.73;;
25237;SDS011;13185;50.872;5.306;2023-01-26T12:16:27;16.80;;;8.40;;
25237;SDS011;13185;50.872;5.306;2023-01-26T12:19:10;14.70;;;7.97;;
25237;SDS011;13185;50.872;5.306;2023-01-26T12:21:48;15.17;;;8.60;;
25237;SDS011;13185;50.872;5.306;2023-01-26T12:24:16;14.37;;;8.00;;
25237;SDS011;13185;50.872;5.306;2023-01-26T12:26:47;18.23;;;9.73;;
25237;SDS011;13185;50.872;5.306;2023-01-26T12:29:19;15.30;;;8.83;;
25237;SDS011;13185;50.872;5.306;2023-01-26T12:31:52;15.50;;;8.13;;
25237;SDS011;13185;50.872;5.306;2023-01-26T12:34:20;13.97;;;8.60;;
25237;SDS011;13185;50.872;5.306;2023-01-26T12:45:06;15.47;;;8.13;;
25237;SDS011;13185;50.872;5.306;2023-01-26T12:47:47;17.33;;;7.97;;
25237;SDS011;13185;50.872;5.306;2023-01-26T12:53:17;15.77;;;8.70;;
25237;SDS011;13185;50.872;5.306;2023-01-26T12:58:33;13.53;;;7.47;;
25237;SDS011;13185;50.872;5.306;2023-01-26T13:03:34;18.97;;;8.53;;
25237;SDS011;13185;50.872;5.306;2023-01-26T13:13:33;23.77;;;12.33;;
25237;SDS011;13185;50.872;5.306;2023-01-26T13:18:53;25.83;;;13.47;;
25237;SDS011;13185;50.872;5.306;2023-01-26T13:26:51;19.67;;;9.97;;
25237;SDS011;13185;50.872;5.306;2023-01-26T13:29:27;26.30;;;10.73;;
25237;SDS011;13185;50.872;5.306;2023-01-26T13:34:42;27.57;;;12.17;;
25237;SDS011;13185;50.872;5.306;2023-01-26T13:39:59;30.93;;;12.63;;
25237;SDS011;13185;50.872;5.306;2023-01-26T13:42:31;33.97;;;13.83;;
25237;SDS011;13185;50.872;5.306;2023-01-26T13:45:20;33.75;;;12.55;;
25237;SDS011;13185;50.872;5.306;2023-01-26T13:48:13;31.10;;;12.43;;
25237;SDS011;13185;50.872;5.306;2023-01-26T13:50:42;34.40;;;13.20;;
25237;SDS011;13185;50.872;5.306;2023-01-26T13:56:21;46.03;;;15.73;;
25237;SDS011;13185;50.872;5.306;2023-01-26T13:58:49;41.83;;;14.43;;
25237;SDS011;13185;50.872;5.306;2023-01-26T14:01:15;42.87;;;14.83;;
25237;SDS011;13185;50.872;5.306;2023-01-26T14:03:41;43.10;;;14.87;;
25237;SDS011;13185;50.872;5.306;2023-01-26T14:06:19;44.40;;;14.60;;
25237;SDS011;13185;50.872;5.306;2023-01-26T14:09:03;40.67;;;15.50;;
25237;SDS011;13185;50.872;5.306;2023-01-26T14:13:58;42.33;;;14.33;;
25237;SDS011;13185;50.872;5.306;2023-01-26T14:16:30;40.13;;;13.93;;
25237;SDS011;13185;50.872;5.306;2023-01-26T14:19:05;41.72;;;15.43;;
25237;SDS011;13185;50.872;5.306;2023-01-26T14:21:43;47.37;;;15.13;;
25237;SDS011;13185;50.872;5.306;2023-01-26T14:24:11;49.63;;;15.37;;
25237;SDS011;13185;50.872;5.306;2023-01-26T14:26:36;37.10;;;14.77;;
25237;SDS011;13185;50.872;5.306;2023-01-26T14:29:02;43.70;;;15.70;;
25237;SDS011;13185;50.872;5.306;2023-01-26T14:31:44;48.97;;;16.50;;
25237;SDS011;13185;50.872;5.306;2023-01-26T14:34:13;44.53;;;15.43;;
25237;SDS011;13185;50.872;5.306;2023-01-26T14:36:44;45.42;;;15.38;;
25237;SDS011;13185;50.872;5.306;2023-01-26T14:39:14;49.37;;;15.47;;
25237;SDS011;13185;50.872;5.306;2023-01-26T14:41:41;48.07;;;15.80;;
25237;SDS011;13185;50.872;5.306;2023-01-26T14:44:07;45.53;;;15.43;;
25237;SDS011;13185;50.872;5.306;2023-01-26T14:49:36;46.90;;;15.07;;
25237;SDS011;13185;50.872;5.306;2023-01-26T14:52:21;43.80;;;14.80;;
25237;SDS011;13185;50.872;5.306;2023-01-26T14:54:50;40.30;;;15.07;;
25237;SDS011;13185;50.872;5.306;2023-01-26T14:57:20;48.10;;;14.35;;
25237;SDS011;13185;50.872;5.306;2023-01-26T14:59:51;47.27;;;15.63;;
25237;SDS011;13185;50.872;5.306;2023-01-26T15:02:20;48.37;;;16.13;;
25237;SDS011;13185;50.872;5.306;2023-01-26T15:04:49;43.17;;;14.63;;
25237;SDS011;13185;50.872;5.306;2023-01-26T15:07:48;53.67;;;15.47;;
25237;SDS011;13185;50.872;5.306;2023-01-26T15:13:22;44.63;;;15.63;;
25237;SDS011;13185;50.872;5.306;2023-01-26T15:15:40;41.33;;;14.63;;
25237;SDS011;13185;50.872;5.306;2023-01-26T15:20:45;43.23;;;15.00;;
25237;SDS011;13185;50.872;5.306;2023-01-26T15:23:28;39.67;;;15.20;;
25237;SDS011;13185;50.872;5.306;2023-01-26T15:26:02;40.73;;;15.77;;
25237;SDS011;13185;50.872;5.306;2023-01-26T15:28:40;47.93;;;17.20;;
25237;SDS011;13185;50.872;5.306;2023-01-26T15:31:06;45.40;;;16.50;;
25237;SDS011;13185;50.872;5.306;2023-01-26T15:33:37;40.13;;;14.80;;
25237;SDS011;13185;50.872;5.306;2023-01-26T15:36:04;46.33;;;14.43;;
25237;SDS011;13185;50.872;5.306;2023-01-26T15:38:31;41.43;;;15.23;;
25237;SDS011;13185;50.872;5.306;2023-01-26T15:40:56;41.63;;;14.00;;
25237;SDS011;13185;50.872;5.306;2023-01-26T15:43:22;39.65;;;13.80;;
25237;SDS011;13185;50.872;5.306;2023-01-26T15:45:51;40.53;;;14.82;;
25237;SDS011;13185;50.872;5.306;2023-01-26T15:48:18;36.75;;;12.75;;
25237;SDS011;13185;50.872;5.306;2023-01-26T15:50:45;32.75;;;12.55;;
25237;SDS011;13185;50.872;5.306;2023-01-26T15:53:12;37.78;;;12.15;;
25237;SDS011;13185;50.872;5.306;2023-01-26T15:55:39;36.08;;;11.68;;
25237;SDS011;13185;50.872;5.306;2023-01-26T15:58:05;29.73;;;12.40;;
25237;SDS011;13185;50.872;5.306;2023-01-26T16:00:30;37.33;;;12.60;;
25237;SDS011;13185;50.872;5.306;2023-01-26T16:02:56;34.90;;;12.23;;
25237;SDS011;13185;50.872;5.306;2023-01-26T16:05:23;37.90;;;12.00;;
25237;SDS011;13185;50.872;5.306;2023-01-26T16:07:49;36.17;;;12.93;;
25237;SDS011;13185;50.872;5.306;2023-01-26T16:10:17;40.43;;;12.30;;
25237;SDS011;13185;50.872;5.306;2023-01-26T16:12:43;32.83;;;12.27;;
25237;SDS011;13185;50.872;5.306;2023-01-26T16:18:03;33.38;;;11.60;;
25237;SDS011;13185;50.872;5.306;2023-01-26T16:20:29;33.83;;;12.30;;
25237;SDS011;13185;50.872;5.306;2023-01-26T16:22:55;31.57;;;13.70;;
25237;SDS011;13185;50.872;5.306;2023-01-26T16:25:30;30.50;;;12.50;;
25237;SDS011;13185;50.872;5.306;2023-01-26T16:27:57;33.23;;;12.13;;
25237;SDS011;13185;50.872;5.306;2023-01-26T16:30:23;34.88;;;14.38;;
25237;SDS011;13185;50.872;5.306;2023-01-26T16:32:50;33.03;;;13.57;;